Date,TemperatureHighF,TemperatureAvgF,TemperatureLowF,DewpointHighF,DewpointAvgF,DewpointLowF,HumidityHigh,HumidityAvg,HumidityLow,PressureMaxIn,PressureMinIn,WindSpeedMaxMPH,WindSpeedAvgMPH,GustSpeedMaxMPH,PrecipitationSumIn
2014-1-1,23.6,13.0,2.5,11.7,3.7,-3.6,87,67,47,30.37,30.14,6,0,15,0.00
2014-1-2,15.3,9.1,0.5,9.4,3.4,-5.9,85,77,71,30.36,29.92,6,0,10,0.00
2014-1-3,9.5,1.9,-10.2,0.3,-8.0,-23.8,84,64,47,30.36,29.82,6,1,16,0.00
2014-1-4,24.3,5.7,-12.0,8.3,-5.6,-20.2,86,62,33,30.43,30.21,5,0,12,0.01
2014-1-5,35.2,23.1,8.1,29.7,13.7,3.8,100,70,41,30.32,29.97,2,0,6,0.00
2014-1-6,39.2,32.2,24.9,38.5,28.7,9.7,100,88,51,29.96,29.32,6,1,15,0.04
2014-1-7,24.5,9.1,1.5,11.8,-8.3,-16.7,59,45,35,30.12,29.49,7,2,29,0.00
2014-1-8,21.1,9.8,0.2,2.6,-5.4,-14.5,59,50,38,30.41,30.11,5,0,12,0.00
2014-1-9,26.7,12.8,3.4,14.7,3.2,-3.5,91,68,39,30.61,30.38,6,0,14,0.00
2014-1-10,30.2,19.4,3.1,24.5,15.3,-0.5,91,84,76,30.57,30.27,0,0,0,0.04
2014-1-11,41.9,33.0,25.8,41.9,32.0,21.3,100,96,83,30.26,29.23,0,0,5,0.64
2014-1-12,43.5,37.4,31.4,43.5,24.3,17.5,100,60,48,29.95,29.27,6,1,22,0.02
2014-1-13,46.0,35.2,27.3,30.6,23.8,16.6,91,64,43,30.11,29.86,6,0,13,0.00
2014-1-14,39.5,37.0,34.5,39.2,34.3,29.8,100,90,75,29.86,29.66,1,0,9,0.60
2014-1-15,43.3,33.8,28.5,34.8,30.0,23.8,100,87,59,30.01,29.76,6,0,9,0.00
2014-1-16,36.6,33.6,28.8,35.6,32.1,26.8,100,94,88,29.95,29.88,0,0,0,0.00
2014-1-17,39.9,32.8,25.7,34.9,26.3,12.3,100,80,42,29.97,29.90,5,0,12,0.04
2014-1-18,34.6,30.2,26.5,33.3,28.3,24.1,100,93,84,29.93,29.66,0,0,6,0.02
2014-1-19,31.4,28.5,26.4,29.8,23.4,16.9,100,82,66,29.72,29.49,6,0,17,0.00
2014-1-20,37.1,28.5,13.2,27.9,19.8,1.9,88,70,59,29.88,29.48,6,1,16,0.16
2014-1-21,14.5,9.2,4.8,2.5,-4.8,-8.3,60,52,43,30.07,29.88,2,0,12,0.00
2014-1-22,14.2,4.7,-2.9,-3.9,-8.9,-13.0,62,53,41,29.92,29.69,5,1,14,0.00
2014-1-23,18.3,7.4,-4.6,1.2,-7.7,-15.9,59,50,37,30.12,29.89,1,0,10,0.00
2014-1-24,16.8,8.0,-0.7,-1.3,-6.8,-12.3,65,51,34,30.23,29.96,6,0,14,0.00
2014-1-25,28.8,19.9,9.9,21.8,9.3,-2.8,87,64,52,29.96,29.29,8,1,23,0.00
2014-1-26,19.8,14.3,7.5,13.1,-3.4,-14.2,84,46,32,29.82,29.31,8,1,24,0.00
2014-1-27,37.7,22.7,14.1,34.5,9.4,-6.9,88,58,31,29.97,29.49,7,1,25,0.06
2014-1-28,18.3,11.3,3.8,-1.7,-7.7,-11.7,65,42,31,30.25,29.97,6,0,17,0.00
2014-1-29,23.0,13.3,3.1,6.5,-5.0,-15.2,76,47,25,30.20,29.91,6,0,14,0.00
2014-1-30,29.6,14.6,1.7,7.7,1.2,-8.3,82,57,36,30.40,30.12,2,0,10,0.00
2014-1-31,36.8,26.6,15.8,20.7,13.5,4.7,84,59,34,30.18,29.98,5,0,10,0.00
2014-2-1,39.0,29.0,22.0,31.7,22.3,13.7,90,77,47,30.34,30.00,1,0,6,0.00
2014-2-2,42.0,34.8,31.1,39.1,31.8,19.5,90,89,47,29.99,29.86,1,0,12,0.04
2014-2-3,25.8,24.2,22.3,8.3,6.8,5.1,47,47,47,30.29,30.26,0,0,5,0.04
2014-2-4,35.5,25.4,14.5,17.2,8.0,-2.1,47,47,47,30.46,30.29,3,0,8,0.00
2014-2-5,28.3,24.3,21.5,10.6,7.0,4.4,47,47,47,30.31,29.69,3,0,12,0.00
2014-2-6,28.3,16.4,8.3,10.6,-0.3,-7.8,47,47,47,30.25,29.95,2,0,8,0.26
2014-2-7,28.7,15.9,1.8,11.0,-0.8,-13.8,47,47,47,30.22,30.11,6,0,13,0.01
2014-2-8,26.6,11.9,2.4,9.1,-4.5,-13.3,47,47,47,30.25,30.16,5,0,12,0.00
2014-2-9,24.9,24.5,24.0,21.7,14.6,7.5,91,69,47,29.92,29.91,0,0,7,0.00
2014-2-10,26.1,17.8,3.2,23.1,9.3,-1.7,96,72,45,30.21,29.90,3,0,17,0.04
2014-2-11,24.5,10.7,-1.8,16.9,-0.7,-7.7,91,59,40,30.44,30.20,3,0,14,0.04
2014-2-12,31.3,13.0,-1.7,5.5,-2.9,-10.4,86,53,25,30.54,30.39,5,0,14,0.01
2014-2-13,30.7,21.5,8.3,28.4,17.1,2.0,95,83,62,30.39,29.14,15,1,15,0.00
2014-2-14,31.9,28.8,22.6,31.8,23.4,13.4,100,80,65,29.71,28.91,18,4,18,0.00
2014-2-15,32.2,25.7,19.3,30.9,22.9,13.4,96,89,77,29.84,29.55,9,0,9,0.04
2014-2-16,29.7,21.8,14.7,21.0,6.8,-5.4,78,53,37,30.00,29.58,18,4,18,0.08
2014-2-17,27.1,13.9,1.5,0.8,-6.5,-15.4,61,40,29,30.36,29.99,14,2,14,0.00
2014-2-18,22.6,14.3,-0.2,20.2,9.3,-8.8,96,81,58,30.35,29.97,5,0,5,0.00
2014-2-19,31.5,24.7,15.3,28.8,22.1,11.8,100,90,71,30.10,29.77,5,0,5,0.05
2014-2-20,46.8,34.5,25.6,34.9,25.2,12.6,100,72,35,30.22,29.85,14,3,14,0.36
2014-2-21,36.2,33.8,30.2,35.6,33.0,29.1,100,97,92,30.15,29.72,0,0,0,0.92
2014-2-22,48.2,35.3,27.0,33.4,22.8,9.5,100,66,35,29.94,29.81,24,3,24,0.00
2014-2-23,48.5,36.6,27.9,35.5,22.8,7.5,91,61,30,29.99,29.79,15,2,15,0.00
2014-2-24,35.5,27.2,17.9,29.4,10.1,1.9,84,50,36,29.93,29.75,9,2,18,0.00
2014-2-25,26.9,18.5,10.1,7.2,3.1,-3.0,66,51,39,29.95,29.85,17,2,18,0.00
2014-2-26,28.7,13.9,3.5,17.8,2.1,-12.5,87,62,32,29.90,29.74,20,2,20,0.00
2014-2-27,26.3,14.0,1.7,12.3,1.3,-8.3,86,59,33,29.88,29.56,20,3,20,0.00
2014-2-28,24.3,10.9,1.6,0.7,-9.3,-17.7,75,41,24,30.42,29.88,18,3,18,0.00
2014-3-1,30.7,17.2,-2.6,13.0,3.2,-6.8,82,58,31,30.44,30.05,14,1,14,0.00
2014-3-2,37.4,28.4,20.2,24.2,14.7,5.9,68,56,50,30.06,29.97,11,2,11,0.00
2014-3-3,23.2,15.3,0.9,5.7,-2.4,-18.0,60,46,27,30.29,30.02,14,2,14,0.00
2014-3-4,30.1,14.9,-4.7,11.9,-3.8,-13.0,82,47,21,30.36,30.22,16,1,16,0.00
2014-3-5,27.8,19.9,7.3,20.9,11.9,-6.3,87,71,55,30.51,30.24,8,0,8,0.02
2014-3-6,34.3,15.1,1.4,2.8,-7.6,-20.7,82,42,12,30.63,30.50,8,0,8,0.02
2014-3-7,42.3,20.7,0.2,21.2,8.7,-3.4,86,63,34,30.50,29.96,10,0,10,0.00
2014-3-8,49.8,31.7,17.5,30.6,20.3,11.8,91,65,38,29.96,29.71,10,1,10,0.00
2014-3-9,38.9,28.7,22.3,16.6,9.4,-2.6,60,45,26,29.95,29.88,15,2,15,0.00
2014-3-10,43.4,32.4,25.3,33.3,21.4,8.6,96,66,45,29.88,29.61,9,0,9,0.01
2014-3-11,52.0,37.3,28.4,45.9,28.8,14.4,100,75,35,29.74,29.50,13,2,13,0.06
2014-3-12,36.5,33.9,27.3,36.5,31.9,26.9,100,92,81,29.74,29.11,6,0,4,1.05
2014-3-13,27.6,16.8,11.2,25.5,7.5,-6.0,92,67,43,29.91,29.10,20,4,20,0.00
2014-3-14,35.3,22.5,8.6,17.4,4.5,-8.7,72,46,39,30.12,29.85,14,1,14,0.04
2014-3-15,50.7,38.2,30.7,40.0,24.3,15.9,72,58,45,29.88,29.66,21,6,21,0.01
2014-3-16,32.9,25.2,15.8,18.5,7.9,-3.4,84,49,31,30.22,29.87,19,6,19,0.00
2014-3-17,30.8,18.7,10.8,5.1,-2.8,-9.2,49,39,26,30.21,30.04,10,0,10,0.00
2014-3-18,41.7,23.0,5.4,13.9,2.3,-14.5,83,46,13,30.34,30.15,8,0,8,0.00
2014-3-19,40.8,29.3,15.9,30.2,20.4,10.9,96,71,47,30.40,30.01,12,0,12,0.00
2014-3-20,44.5,36.7,30.8,39.4,29.4,19.0,100,77,46,30.03,29.63,20,3,20,0.47
2014-3-21,40.2,33.9,27.2,23.6,19.5,11.6,80,56,45,30.02,29.71,20,4,20,0.00
2014-3-22,48.7,32.9,22.9,41.0,24.3,16.8,96,72,48,30.06,29.65,21,2,21,0.02
2014-3-23,38.1,29.9,15.7,26.7,15.0,-3.9,77,55,32,30.12,29.93,15,4,15,0.04
2014-3-24,32.0,19.3,10.6,7.6,0.7,-7.5,66,45,30,30.16,30.04,18,3,18,0.00
2014-3-25,37.7,22.9,6.7,17.1,9.7,2.3,83,60,35,30.13,29.96,16,2,16,0.00
2014-3-26,32.8,26.0,18.2,16.6,10.2,-1.2,65,52,35,30.04,29.70,24,6,24,0.00
2014-3-27,42.4,27.1,14.8,11.6,2.4,-4.8,46,35,19,30.32,30.04,16,3,17,0.00
2014-3-28,42.8,37.1,31.6,40.1,29.3,11.4,100,75,43,30.19,29.93,14,0,14,0.18
2014-3-29,47.4,39.5,34.8,40.1,33.7,28.3,100,81,60,30.27,30.04,14,1,14,0.44
2014-3-30,37.4,35.2,34.0,34.1,32.7,30.8,96,91,82,30.06,29.71,12,1,12,1.52
2014-3-31,40.6,34.1,30.5,32.8,27.7,22.2,96,78,57,30.08,29.75,24,4,24,0.45
2014-4-1,54.1,38.2,29.2,29.5,23.1,14.7,75,56,33,30.12,30.03,10,2,10,0.00
2014-4-2,52.9,38.6,28.8,34.9,27.2,18.5,95,67,39,30.14,30.02,12,1,12,0.00
2014-4-3,51.7,37.9,29.2,33.0,23.8,11.6,96,62,31,30.16,30.07,12,2,12,0.00
2014-4-4,49.2,37.0,29.5,33.6,25.6,16.7,95,66,36,30.19,29.93,12,1,12,0.29
2014-4-5,48.4,38.2,33.3,42.5,29.4,18.0,100,74,43,29.94,29.71,21,4,21,0.14
2014-4-6,53.2,38.8,30.9,26.5,15.9,4.4,68,42,20,30.19,29.94,18,3,18,0.00
2014-4-7,55.0,41.8,29.6,34.1,21.4,7.2,84,50,23,30.26,29.94,10,0,10,0.07
2014-4-8,54.9,43.1,37.6,52.2,39.2,25.5,100,87,62,29.94,29.32,16,2,16,0.34
2014-4-9,51.6,40.0,29.0,36.9,21.0,-1.6,92,51,21,29.98,29.52,18,4,18,0.00
2014-4-10,63.4,47.1,27.0,49.7,16.4,3.8,77,33,15,30.06,29.95,21,4,21,0.00
2014-4-11,70.4,52.3,41.7,39.7,28.3,13.2,79,43,20,30.06,29.92,15,2,15,0.02
2014-4-12,66.8,49.0,34.8,44.5,30.6,16.9,100,58,22,30.23,30.02,18,2,18,0.00
2014-4-13,53.0,43.6,39.3,45.8,36.0,25.3,92,75,55,30.32,30.06,12,1,12,0.08
2014-4-14,75.2,56.2,36.1,60.2,43.3,34.8,100,67,30,30.06,29.83,24,6,24,0.00
2014-4-15,62.6,56.7,35.1,59.9,52.3,31.8,96,85,64,29.86,29.51,25,5,25,1.13
2014-4-16,40.8,31.9,23.8,34.4,18.3,6.7,100,60,33,30.63,29.77,23,2,23,0.26
2014-4-17,50.0,33.7,21.4,24.7,15.9,7.7,91,52,25,30.84,30.63,13,1,13,0.00
2014-4-18,49.0,36.1,22.8,31.9,25.4,19.5,91,67,43,30.69,30.25,9,1,9,0.00
2014-4-19,59.0,42.1,29.1,39.9,27.5,16.6,92,61,32,30.45,30.19,21,3,21,0.00
2014-4-20,62.4,43.4,27.8,33.8,20.0,10.0,91,47,17,30.55,30.34,14,1,14,0.00
2014-4-21,75.1,52.1,32.5,37.3,20.9,2.1,84,39,10,30.34,29.85,15,1,15,0.00
2014-4-22,51.1,50.2,49.0,29.6,21.3,12.9,47,32,22,29.85,29.79,0,0,0,0.00
2014-4-23,43.0,42.7,42.4,30.9,28.9,24.0,62,58,47,29.68,29.66,15,4,15,0.04
2014-4-24,56.2,44.9,35.9,29.2,22.3,17.6,59,42,29,29.97,29.67,27,5,27,0.00
2014-4-25,66.8,49.5,34.0,28.7,22.3,11.4,66,37,21,30.05,29.82,12,0,12,0.00
2014-4-26,50.0,43.5,38.5,42.4,36.2,24.7,96,77,49,29.88,29.78,9,0,9,0.46
2014-4-27,53.1,43.4,36.7,45.0,37.6,30.5,96,81,60,30.10,29.87,10,2,10,0.16
2014-4-28,60.1,47.9,37.1,42.6,34.7,31.1,91,63,41,30.26,30.05,13,3,13,0.04
2014-4-29,55.6,44.1,37.9,40.2,33.4,27.9,85,67,49,30.56,30.26,16,3,16,0.06
2014-4-30,44.5,39.7,37.4,38.0,35.2,31.8,95,84,67,30.57,30.23,10,0,10,0.76
2014-5-1,67.3,49.2,38.2,59.1,45.8,36.9,100,89,65,30.23,29.69,8,1,8,0.68
2014-5-2,63.1,52.0,40.2,51.4,38.3,27.5,100,64,35,29.84,29.69,16,1,16,0.00
2014-5-3,65.8,52.8,40.2,55.9,39.8,31.4,100,66,35,29.88,29.74,12,1,12,0.01
2014-5-4,58.0,49.3,42.5,55.4,38.7,28.0,100,70,40,29.74,29.55,21,5,21,0.05
2014-5-5,61.5,51.3,44.2,45.6,38.3,30.3,85,63,43,29.91,29.65,16,4,17,0.00
2014-5-6,63.9,49.5,38.1,43.9,29.3,14.7,96,52,21,30.09,29.88,18,3,18,0.00
2014-5-7,69.3,51.7,36.3,48.9,26.5,13.2,85,44,15,30.23,30.08,12,1,12,0.00
2014-5-8,75.3,56.0,35.7,42.4,30.9,17.0,92,47,14,30.25,30.08,10,1,11,0.00
2014-5-9,54.4,50.2,47.0,49.5,38.0,25.0,100,66,39,30.29,30.11,6,0,6,0.08
2014-5-10,78.0,60.2,48.4,67.6,52.2,41.6,100,79,41,30.11,29.75,19,2,19,0.06
2014-5-11,78.5,64.2,54.2,51.0,32.6,19.4,75,35,14,30.07,29.84,14,4,14,0.00
2014-5-12,85.3,67.0,49.3,61.1,39.5,26.1,91,45,16,30.15,29.99,15,2,15,0.00
2014-5-13,64.3,51.9,47.9,48.5,40.6,36.6,73,65,36,30.35,30.12,14,0,14,0.04
2014-5-14,77.0,59.0,44.6,53.0,42.5,35.6,82,57,31,30.35,30.23,13,1,13,0.00
2014-5-15,76.7,62.9,53.5,60.6,54.0,48.5,89,74,50,30.32,30.20,10,1,10,0.00
2014-5-16,67.3,63.4,61.1,64.7,59.8,54.6,100,88,65,30.21,29.97,11,1,11,0.17
2014-5-17,71.5,61.0,47.5,62.1,45.7,20.5,100,64,23,30.11,29.83,14,3,14,1.26
2014-5-18,69.7,55.1,44.4,53.1,34.1,17.6,95,52,22,30.18,30.07,12,2,12,0.00
2014-5-19,63.8,53.8,43.4,49.7,36.9,26.0,92,56,29,30.15,30.06,17,3,17,0.00
2014-5-20,77.8,59.9,47.9,57.5,40.2,23.8,100,56,22,30.10,29.97,15,3,15,0.00
2014-5-21,79.5,60.5,43.5,55.8,46.0,33.2,96,64,25,30.05,29.92,7,0,7,0.00
2014-5-22,65.5,56.1,48.2,60.7,51.4,21.8,96,85,25,29.97,29.88,7,0,7,0.54
2014-5-23,55.7,53.0,49.7,55.7,52.0,48.4,100,96,92,30.04,29.90,6,0,6,1.33
2014-5-24,69.2,55.5,49.1,59.3,51.0,36.8,100,87,48,30.10,30.01,12,0,12,0.18
2014-5-25,76.2,58.2,45.9,61.9,52.0,45.8,100,82,45,30.12,29.99,8,0,8,0.00
2014-5-26,75.7,63.4,52.6,65.0,50.8,38.9,100,68,37,30.03,29.83,14,2,14,0.00
2014-5-27,72.6,56.8,45.5,66.1,52.8,42.2,96,87,67,30.02,29.86,9,1,9,0.99
2014-5-28,51.7,47.8,45.1,47.4,44.5,41.9,96,89,76,30.27,30.00,4,0,4,0.37
2014-5-29,70.4,53.1,37.4,50.3,39.6,29.9,100,66,30,30.30,30.15,8,0,8,0.01
2014-5-30,73.3,55.9,46.0,56.8,46.3,33.3,100,74,31,30.16,30.03,12,0,12,0.16
2014-5-31,68.7,54.6,44.7,55.3,46.9,38.6,100,78,53,30.36,30.11,12,1,12,0.09
2014-6-1,76.0,58.4,41.7,56.6,41.0,29.7,100,61,24,30.41,30.24,8,0,8,0.00
2014-6-2,83.4,64.8,48.5,54.5,44.8,34.4,96,54,24,30.25,30.01,10,1,10,0.00
2014-6-3,85.0,67.8,55.1,59.9,53.6,42.7,96,64,30,30.05,29.89,12,1,12,0.00
2014-6-4,72.3,62.0,56.3,65.8,55.7,46.3,96,80,61,29.93,29.79,6,0,6,0.00
2014-6-5,65.2,58.5,55.1,61.9,55.8,49.8,100,91,72,29.83,29.73,8,0,8,0.02
2014-6-6,75.9,61.7,54.4,57.3,50.9,42.6,100,71,46,29.94,29.75,13,2,13,0.07
2014-6-7,82.0,65.5,53.4,58.3,49.2,38.9,96,60,31,30.01,29.92,11,2,11,0.00
2014-6-8,84.9,67.6,51.2,60.1,50.8,40.6,96,61,27,30.02,29.88,7,0,7,0.00
2014-6-9,81.4,68.0,60.7,64.2,56.4,47.0,93,69,37,30.02,29.93,8,0,8,0.00
2014-6-10,78.7,66.4,59.8,66.6,57.8,50.6,93,75,61,30.16,29.99,9,0,9,0.00
2014-6-11,71.4,59.9,51.3,57.2,50.8,38.4,100,74,43,30.25,30.16,7,0,7,0.05
2014-6-12,61.4,58.1,55.0,56.8,52.4,49.8,96,82,72,30.22,30.11,7,0,7,0.07
2014-6-13,59.7,57.8,56.4,58.6,56.2,53.8,96,94,90,30.11,29.87,2,0,2,0.63
2014-6-14,70.6,60.8,53.6,62.2,52.9,39.5,100,77,47,29.98,29.85,12,0,12,0.01
2014-6-15,76.1,62.4,52.8,54.2,47.9,39.8,92,61,39,30.13,29.97,16,4,16,0.00
2014-6-16,82.4,64.7,49.9,55.8,46.0,29.3,92,58,23,30.21,30.04,7,0,7,0.00
2014-6-17,86.9,70.8,59.3,64.9,57.8,49.8,93,65,46,30.10,29.85,7,0,7,0.00
2014-6-18,79.2,70.1,63.2,65.3,57.1,45.9,96,65,45,30.00,29.74,16,2,16,0.38
2014-6-19,79.9,68.2,57.7,59.7,45.5,29.1,86,48,25,30.05,29.97,12,2,12,0.00
2014-6-20,74.2,60.9,50.4,59.2,42.6,32.4,95,56,27,30.05,29.95,14,3,14,0.00
2014-6-21,72.2,57.3,44.3,49.7,41.8,32.0,96,61,32,30.03,29.94,11,1,11,0.00
2014-6-22,79.0,60.6,45.7,51.4,45.5,37.4,96,62,30,30.09,29.99,9,0,9,0.00
2014-6-23,81.0,65.1,49.5,57.9,50.1,43.8,96,62,35,30.19,30.09,7,0,7,0.00
2014-6-24,80.2,68.1,58.9,62.3,53.6,47.6,74,61,42,30.17,30.01,12,2,12,0.00
2014-6-25,85.0,70.1,63.8,68.5,60.4,50.8,100,73,49,30.01,29.88,10,0,10,4.67
2014-6-26,74.8,68.5,60.6,69.5,64.4,60.3,100,88,70,30.07,29.85,8,0,8,0.45
2014-6-27,81.2,65.7,57.1,62.7,52.5,37.9,100,68,32,30.26,30.07,8,0,9,0.00
2014-6-28,83.8,67.1,54.3,60.8,49.9,35.3,96,60,24,30.33,30.25,5,0,5,0.00
2014-6-29,84.8,69.4,56.9,63.7,55.2,47.8,96,65,34,30.31,30.10,7,0,7,0.00
2014-6-30,87.0,72.6,61.5,65.9,59.6,53.9,93,66,43,30.13,29.93,9,1,9,0.00
2014-7-1,87.4,75.8,65.6,83.0,71.4,59.5,87,86,78,29.96,29.79,13,2,13,0.00
2014-7-2,89.7,74.8,68.0,85.1,70.6,64.0,87,87,87,29.95,29.83,10,0,10,0.49
2014-7-3,85.4,72.5,65.5,80.7,68.4,61.4,87,87,87,30.04,29.91,16,0,16,0.77
2014-7-4,69.2,65.8,58.5,67.6,62.7,56.4,100,90,87,30.05,29.89,1,0,10,0.72
2014-7-5,76.3,64.2,54.7,56.3,45.6,36.9,93,55,32,30.06,29.87,6,1,18,0.08
2014-7-6,81.8,68.0,56.2,57.9,47.8,40.8,80,51,29,30.06,29.89,3,0,12,0.00
2014-7-7,82.8,70.0,61.7,69.0,60.1,51.9,96,72,50,29.91,29.72,6,0,14,0.51
2014-7-8,83.9,73.6,64.9,69.3,65.0,59.8,100,76,53,29.82,29.67,3,0,9,0.09
2014-7-9,82.5,71.5,62.9,67.5,59.7,42.0,93,69,41,29.98,29.67,6,0,18,0.41
2014-7-10,78.7,66.1,57.4,61.5,51.7,34.9,96,64,31,30.22,29.98,8,0,8,0.01
2014-7-11,77.4,64.0,52.6,59.5,52.0,43.9,96,69,41,30.31,30.21,5,0,5,0.00
2014-7-12,83.2,68.2,54.1,61.4,55.2,48.6,100,67,39,30.29,30.13,7,0,7,0.00
2014-7-13,82.0,71.0,62.6,67.7,61.7,56.6,93,73,53,30.14,29.90,14,2,14,0.33
2014-7-14,85.4,73.7,67.3,69.8,64.8,55.6,100,76,46,29.95,29.86,9,0,9,0.02
2014-7-15,81.2,72.0,67.9,72.9,68.4,57.6,100,89,60,29.90,29.78,8,0,8,2.05
2014-7-16,75.4,68.5,60.8,70.7,64.7,50.1,100,88,65,29.92,29.77,2,0,2,1.11
2014-7-17,78.7,65.3,57.1,60.2,53.1,40.8,96,68,39,30.13,29.91,10,1,10,0.00
2014-7-18,78.3,64.3,53.4,60.3,52.6,40.4,100,71,36,30.30,30.13,8,0,8,0.00
2014-7-19,75.0,63.6,53.1,60.7,55.8,51.3,96,78,53,30.35,30.27,0,0,0,0.00
2014-7-20,79.3,65.9,58.3,62.8,55.7,46.1,96,73,40,30.28,30.19,9,0,9,0.00
2014-7-21,80.4,65.9,53.9,61.3,54.0,45.8,100,70,37,30.27,30.17,4,0,4,0.00
2014-7-22,85.4,71.7,61.1,68.6,61.3,54.5,96,72,45,30.20,30.00,7,0,7,0.00
2014-7-23,88.6,74.8,67.0,70.3,65.4,56.3,100,75,48,30.01,29.76,14,2,14,0.86
2014-7-24,77.3,67.3,56.9,67.8,56.8,43.3,96,72,43,29.97,29.81,10,1,10,0.08
2014-7-25,78.0,63.8,50.8,59.3,52.4,45.0,96,70,40,30.04,29.97,9,0,9,0.00
2014-7-26,77.7,66.1,56.5,65.9,54.7,41.6,96,71,37,30.02,29.90,8,1,8,0.00
2014-7-27,75.8,66.4,58.9,70.1,63.1,56.0,100,89,75,29.95,29.69,11,0,11,0.33
2014-7-28,78.5,67.6,62.6,73.8,63.7,53.0,100,88,60,29.71,29.46,8,1,8,0.92
2014-7-29,74.5,63.1,55.0,60.6,51.0,41.1,96,68,40,29.99,29.59,9,1,9,0.00
2014-7-30,76.1,62.0,53.5,59.6,52.5,41.2,96,74,39,30.08,29.99,4,0,3,0.00
2014-7-31,76.0,61.9,51.9,63.5,56.1,45.3,100,83,51,30.21,30.08,10,0,10,0.64
2014-8-1,79.8,67.0,56.6,72.2,62.6,56.3,100,87,60,30.28,30.20,8,0,8,0.62
2014-8-2,76.6,67.2,58.2,67.5,60.9,52.8,100,82,57,30.26,30.17,7,0,7,0.00
2014-8-3,79.8,64.7,54.4,66.2,59.2,53.2,100,84,62,30.20,30.08,5,0,5,0.00
2014-8-4,79.8,67.5,58.4,68.5,59.7,53.0,100,79,44,30.10,30.03,5,0,5,0.00
2014-8-5,82.1,69.0,60.0,70.5,60.9,52.5,100,78,49,30.11,29.95,5,0,5,0.02
2014-8-6,78.3,67.4,58.7,65.2,55.8,43.8,96,70,36,29.96,29.85,10,1,10,0.05
2014-8-7,73.4,60.8,53.2,60.1,53.0,45.6,96,77,49,30.01,29.92,9,1,9,0.05
2014-8-8,77.8,64.2,54.2,59.4,52.3,41.3,100,69,37,30.10,29.99,10,1,10,0.01
2014-8-9,80.5,66.0,54.6,60.9,52.8,38.8,96,68,31,30.17,30.08,9,0,9,0.00
2014-8-10,82.3,66.9,55.1,62.6,54.5,43.4,96,69,32,30.20,30.12,5,0,5,0.00
2014-8-11,80.0,66.9,57.2,65.9,56.8,42.3,100,74,37,30.22,30.12,0,0,0,0.29
2014-8-12,78.9,67.4,58.4,64.7,58.5,49.8,96,76,44,30.18,30.06,9,0,9,0.00
2014-8-13,66.1,62.8,58.8,63.4,60.7,57.7,100,93,87,30.06,29.71,14,0,14,3.44
2014-8-14,71.0,60.1,50.6,58.5,48.8,35.2,100,70,39,29.92,29.73,13,1,13,0.01
2014-8-15,67.3,58.0,50.3,55.4,48.8,41.3,96,73,48,29.97,29.90,9,1,9,0.00
2014-8-16,72.6,61.1,51.1,56.0,49.1,42.5,96,67,41,30.01,29.94,10,1,10,0.00
2014-8-17,72.9,61.7,55.5,58.8,53.3,46.1,100,76,51,29.94,29.85,9,1,9,0.01
2014-8-18,73.8,60.9,51.5,57.5,49.5,39.8,100,70,42,29.95,29.85,14,2,14,0.00
2014-8-19,76.4,60.1,47.4,55.8,48.9,37.6,96,71,38,30.02,29.93,7,0,7,0.00
2014-8-20,79.1,63.2,49.6,61.0,52.9,47.8,96,73,41,30.12,30.02,5,0,5,0.00
2014-8-21,64.6,59.7,55.8,60.3,55.9,50.6,100,88,67,30.17,30.10,0,0,0,0.54
2014-8-22,64.8,59.7,55.3,58.4,55.5,52.8,100,87,72,30.19,30.15,2,0,2,0.56
2014-8-23,71.9,62.1,56.0,59.3,54.3,49.7,100,77,55,30.20,30.16,10,0,10,0.00
2014-8-24,77.4,63.2,52.3,65.3,54.0,41.6,100,77,39,30.22,30.16,8,0,8,0.00
2014-8-25,81.3,66.3,55.0,61.9,54.4,39.9,96,71,33,30.24,30.14,5,0,5,0.00
2014-8-26,83.3,68.1,56.2,64.6,57.9,46.8,100,75,37,30.22,30.06,8,0,8,0.00
2014-8-27,82.0,70.6,62.7,65.9,61.4,56.7,96,75,51,30.06,29.88,12,1,12,0.00
2014-8-28,75.3,64.8,56.3,62.7,50.7,38.5,84,62,41,30.07,29.88,12,2,12,0.00
2014-8-29,78.7,61.8,51.8,57.8,51.0,43.3,96,70,43,30.30,30.06,7,0,7,0.00
2014-8-30,76.3,63.3,52.3,62.4,54.1,47.8,100,75,44,30.33,30.14,12,2,12,0.00
2014-8-31,80.8,69.6,61.4,69.8,63.8,56.3,100,83,62,30.14,29.97,10,1,10,0.08
2014-9-1,83.5,71.3,64.9,69.5,63.6,52.6,100,80,47,30.03,29.94,7,0,7,0.00
2014-9-2,82.7,71.6,63.6,78.2,67.2,56.5,100,87,58,29.99,29.74,8,0,8,0.17
2014-9-3,79.0,68.5,60.5,69.6,56.2,41.6,96,68,37,30.14,29.74,13,1,13,0.03
2014-9-4,80.5,66.5,54.1,64.8,56.7,49.8,100,75,40,30.25,30.13,7,0,7,0.00
2014-9-5,84.8,71.8,60.7,67.4,62.6,58.7,96,75,46,30.20,29.99,12,1,12,0.00
2014-9-6,84.4,72.4,62.8,71.6,65.0,54.8,100,79,58,29.99,29.79,10,1,10,0.02
2014-9-7,75.2,63.2,53.4,61.7,50.2,35.9,96,67,34,30.27,29.96,8,0,8,0.02
2014-9-8,74.1,59.1,47.9,54.6,48.6,43.0,96,72,40,30.45,30.27,6,0,6,0.00
2014-9-9,67.8,55.9,45.3,53.8,47.0,42.1,96,75,43,30.45,30.27,8,0,7,0.00
2014-9-10,69.5,59.1,52.1,57.2,53.5,50.0,96,83,58,30.27,30.08,8,0,8,0.00
2014-9-11,69.0,62.2,55.4,66.1,58.8,50.0,100,89,72,30.08,29.81,10,1,12,0.02
2014-9-12,66.5,56.6,46.6,51.9,43.3,36.4,80,62,44,30.31,29.95,13,2,13,0.00
2014-9-13,55.7,50.6,42.2,53.2,45.8,37.6,96,84,66,30.36,30.16,6,0,6,0.32
2014-9-14,63.5,50.6,42.8,50.9,40.9,31.8,100,72,43,30.31,30.15,11,1,11,0.00
2014-9-15,64.1,49.9,38.4,46.7,39.5,28.8,96,72,36,30.30,30.13,0,0,0,0.00
2014-9-16,62.5,52.9,48.5,57.2,49.4,44.2,100,89,67,30.15,29.99,6,0,5,0.20
2014-9-17,67.0,53.1,43.0,55.2,44.9,31.4,100,78,37,30.08,29.98,7,0,7,0.00
2014-9-18,67.1,52.4,41.9,51.7,43.1,33.9,100,74,42,30.22,29.98,8,0,8,0.00
2014-9-19,59.4,45.7,37.1,40.8,31.5,19.9,96,63,28,30.44,30.22,7,0,7,0.00
2014-9-20,64.3,50.7,35.8,52.6,43.8,30.8,92,78,61,30.42,30.11,9,1,9,0.00
2014-9-21,74.9,64.8,53.7,69.9,61.9,50.3,100,91,73,30.11,29.59,8,1,10,0.00
2014-9-22,66.8,59.1,45.3,63.7,45.3,30.5,100,63,35,30.13,29.57,15,3,15,0.00
2014-9-23,69.5,53.9,43.2,50.3,40.6,33.0,96,64,35,30.47,30.12,12,0,12,0.00
2014-9-24,68.7,53.6,43.5,54.5,45.0,33.7,100,76,46,30.69,30.48,8,0,9,0.00
2014-9-25,65.6,52.1,42.7,56.3,47.5,41.3,100,86,55,30.60,30.31,2,0,2,0.00
2014-9-26,74.8,57.7,45.9,58.7,50.2,41.4,100,80,43,30.31,30.20,7,0,7,0.00
2014-9-27,79.3,62.1,50.4,60.6,52.8,45.6,96,76,42,30.25,30.18,8,0,8,0.00
2014-9-28,81.2,64.8,52.7,65.0,56.2,45.9,100,78,41,30.22,30.03,7,0,7,0.00
2014-9-29,74.2,62.0,55.3,65.0,56.8,50.1,100,85,49,30.09,30.00,7,0,7,0.00
2014-9-30,59.2,57.0,54.5,55.3,52.6,49.8,96,86,74,30.11,30.05,0,0,0,0.04
2014-10-1,57.6,55.7,54.5,55.6,53.2,50.4,96,91,83,30.20,30.09,0,0,0,0.46
2014-10-2,62.7,55.3,46.3,53.8,50.5,44.1,100,85,62,30.25,30.16,0,0,0,0.02
2014-10-3,66.9,52.5,42.1,54.8,45.7,39.6,100,81,44,30.22,29.95,0,0,0,0.00
2014-10-4,57.6,54.7,50.8,56.6,53.6,50.2,100,96,87,29.95,29.57,0,0,0,1.08
2014-10-5,60.1,50.1,38.7,54.1,39.0,22.6,96,70,33,29.98,29.59,10,1,10,0.01
2014-10-6,63.8,48.3,34.4,46.5,38.3,33.2,100,73,36,30.17,29.97,16,1,16,0.00
2014-10-7,67.8,56.0,45.8,60.4,49.1,42.9,100,79,52,30.16,29.99,17,1,17,0.02
2014-10-8,66.7,58.1,51.1,56.4,46.8,30.3,96,69,38,29.99,29.70,17,2,17,0.13
2014-10-9,62.0,49.6,40.1,38.3,31.4,23.1,82,52,27,30.01,29.88,16,2,16,0.00
2014-10-10,60.3,46.7,36.7,43.9,34.1,25.1,96,65,37,30.17,30.00,9,1,9,0.00
2014-10-11,58.0,44.4,38.0,49.6,39.6,31.2,96,84,50,30.18,30.08,0,0,0,0.00
2014-10-12,60.4,44.6,33.6,44.5,35.6,25.5,100,75,37,30.34,30.17,12,0,12,0.00
2014-10-13,58.4,47.0,33.9,49.3,40.7,32.6,100,81,61,30.38,30.26,10,1,10,0.00
2014-10-14,73.5,62.0,54.0,63.3,55.3,47.9,93,79,61,30.28,30.17,15,2,15,0.00
2014-10-15,74.4,66.0,59.5,63.3,59.4,53.6,96,81,57,30.17,30.01,10,1,10,0.01
2014-10-16,67.3,65.2,58.8,65.8,63.0,56.8,100,93,86,30.00,29.70,4,0,4,2.46
2014-10-17,68.3,58.7,51.8,57.6,49.8,36.2,100,75,42,29.71,29.63,14,1,14,0.00
2014-10-18,63.3,55.6,50.1,57.4,49.4,42.8,96,81,59,29.69,29.54,9,1,9,0.00
2014-10-19,52.7,45.5,37.3,45.7,31.8,20.0,77,59,42,29.99,29.63,14,3,14,0.00
2014-10-20,53.7,43.1,32.8,35.7,27.1,16.5,66,54,38,30.05,29.97,13,1,13,0.00
2014-10-21,51.9,47.7,43.4,49.5,43.9,32.8,96,87,65,30.08,29.98,0,0,0,0.04
2014-10-22,49.4,47.0,45.4,47.2,44.3,42.3,96,90,82,30.15,29.96,15,1,15,0.84
2014-10-23,49.3,47.4,45.2,49.2,45.2,42.3,100,92,85,29.97,29.76,10,1,10,2.34
2014-10-24,50.4,46.8,44.9,46.7,42.6,37.4,96,85,73,29.79,29.74,12,2,12,0.14
2014-10-25,62.2,49.4,37.6,43.1,36.5,27.4,96,64,31,29.80,29.52,11,1,11,0.00
2014-10-26,57.3,47.2,42.0,46.0,39.0,33.7,96,74,52,29.73,29.46,13,2,13,0.00
2014-10-27,58.4,46.9,38.4,41.0,35.5,27.8,92,66,42,30.06,29.72,10,2,10,0.00
2014-10-28,61.1,47.7,37.9,47.1,41.4,35.7,100,81,46,30.11,29.97,10,0,10,0.00
2014-10-29,58.7,49.8,42.2,55.4,47.3,37.8,100,92,63,29.98,29.84,16,0,16,0.10
2014-10-30,55.1,43.6,36.2,47.4,37.8,28.3,100,82,50,30.04,29.90,8,0,8,0.00
2014-10-31,48.6,42.7,35.6,41.3,34.8,27.6,96,76,49,30.10,30.03,0,0,0,0.00
2014-11-1,42.4,38.5,33.7,39.1,35.6,31.5,96,90,76,30.03,29.91,9,0,9,0.36
2014-11-2,38.6,36.2,33.8,31.5,22.1,7.7,85,58,32,29.93,29.72,23,8,23,0.00
2014-11-3,50.1,38.1,30.5,33.0,11.2,-4.8,78,36,14,30.09,29.86,17,5,17,0.00
2014-11-4,55.7,43.9,32.0,38.3,31.6,24.6,88,64,39,30.15,30.01,9,0,9,0.00
2014-11-5,59.2,47.2,35.5,47.2,35.1,19.4,95,67,29,30.15,29.96,14,2,14,0.00
2014-11-6,47.9,41.9,35.8,43.0,38.4,32.6,100,87,72,30.15,29.57,4,0,4,0.24
2014-11-7,43.9,39.6,34.9,42.1,32.2,20.8,96,76,56,29.82,29.52,18,4,18,0.02
2014-11-8,44.9,37.3,30.1,26.7,20.0,11.7,60,50,33,29.96,29.81,12,3,12,0.00
2014-11-9,52.0,40.9,29.4,35.6,29.1,22.3,92,64,42,30.04,29.87,11,1,11,0.00
2014-11-10,51.9,38.9,30.1,40.5,32.0,24.2,96,79,43,30.22,30.04,8,0,8,0.00
2014-11-11,60.1,45.4,31.4,50.2,40.1,29.3,96,83,61,30.22,29.99,15,1,15,0.00
2014-11-12,65.1,49.7,35.9,59.5,44.8,22.8,100,84,59,30.04,29.85,14,1,14,0.00
2014-11-13,46.2,38.4,29.8,36.9,23.8,17.3,96,58,36,30.10,29.97,9,0,9,0.02
2014-11-14,42.4,34.2,27.5,37.6,24.2,9.3,100,70,34,30.11,29.93,14,1,14,0.03
2014-11-15,38.4,28.7,22.6,22.2,14.4,2.9,84,58,28,30.33,30.11,18,2,18,0.00
2014-11-16,38.8,31.5,22.6,27.1,21.2,14.9,91,68,43,30.36,30.11,12,0,12,0.00
2014-11-17,35.9,33.7,31.1,35.1,31.2,20.8,100,91,58,30.11,29.46,0,0,0,1.06
2014-11-18,35.2,28.1,21.0,35.2,13.9,-1.2,100,59,33,29.87,29.47,21,5,21,0.00
2014-11-19,33.8,24.9,20.1,9.4,5.1,0.7,54,43,30,30.11,29.87,19,5,19,0.02
2014-11-20,40.4,29.5,22.4,19.5,12.1,5.8,59,48,37,30.02,29.75,20,2,20,0.01
2014-11-21,31.3,24.3,20.3,12.1,6.2,-0.6,62,46,33,30.39,29.92,15,3,15,0.00
2014-11-22,36.7,27.9,14.8,21.6,9.1,1.3,83,48,28,30.40,30.02,14,2,14,0.00
2014-11-23,53.3,41.4,32.9,37.5,30.9,13.9,85,67,44,30.15,30.03,12,1,12,0.01
2014-11-24,60.5,49.3,35.1,57.8,45.1,31.4,100,86,70,30.10,29.56,21,4,21,0.68
2014-11-25,58.6,48.9,35.2,50.4,31.2,15.0,85,54,26,30.13,29.68,16,3,16,0.00
2014-11-26,38.2,35.0,31.4,36.0,30.7,24.4,100,85,61,30.25,29.85,6,0,6,0.00
2014-11-27,33.5,29.5,25.9,28.1,24.4,20.9,95,81,78,30.03,29.91,0,0,0,0.07
2014-11-28,34.9,25.6,14.5,29.6,20.6,8.9,81,81,81,30.21,30.02,14,0,14,0.07
2014-11-29,33.4,21.0,11.1,24.1,15.5,6.3,92,80,60,30.33,30.21,9,0,9,0.02
2014-11-30,43.6,34.4,25.4,40.2,30.6,19.3,96,86,77,30.23,30.01,14,1,14,0.00
2014-12-1,48.5,38.3,33.5,41.6,31.6,22.0,95,77,63,30.48,30.00,13,0,13,0.00
2014-12-2,33.7,28.8,24.0,26.4,18.0,10.6,95,64,50,30.74,30.44,13,2,13,0.00
2014-12-3,37.9,33.1,26.8,36.9,31.2,21.9,100,93,66,30.45,29.87,16,1,16,0.19
2014-12-4,37.7,30.7,20.4,29.3,18.4,8.1,85,61,47,30.57,30.07,13,2,13,0.12
2014-12-5,31.6,24.7,14.8,27.0,17.5,8.4,92,75,57,30.69,30.47,5,0,5,0.01
2014-12-6,35.7,32.7,27.9,35.4,31.6,26.3,100,96,92,30.47,30.14,12,0,12,0.99
2014-12-7,33.5,24.7,13.1,29.0,10.7,-2.1,84,56,35,30.73,30.29,19,5,19,0.11
2014-12-8,24.4,17.7,8.1,17.8,9.0,-2.7,87,69,43,30.79,30.55,8,0,8,0.00
2014-12-9,35.7,30.5,22.3,35.5,28.0,16.0,100,90,77,30.55,29.66,13,1,13,0.40
2014-12-10,36.4,34.8,33.3,35.4,33.5,30.3,100,95,88,29.67,29.46,10,0,10,0.80
2014-12-11,36.6,33.4,30.9,36.3,32.4,28.4,100,96,91,29.77,29.46,8,0,8,0.17
2014-12-12,37.9,31.6,26.8,30.3,27.3,23.9,95,84,71,29.91,29.77,12,1,12,0.03
2014-12-13,38.1,32.1,28.1,29.2,24.7,21.7,84,74,66,29.90,29.80,15,3,15,0.00
2014-12-14,39.2,31.8,26.5,28.7,24.7,17.8,92,75,66,29.94,29.81,12,2,12,0.00
2014-12-15,38.5,31.2,23.8,28.4,24.0,16.6,95,75,54,30.17,29.93,12,2,12,0.00
2014-12-16,34.9,30.4,22.8,34.5,26.6,18.5,100,86,77,30.18,29.97,0,0,0,0.10
2014-12-17,41.9,35.7,32.5,40.0,34.1,29.5,100,94,81,29.96,29.73,9,0,9,0.66
2014-12-18,40.0,35.1,31.7,32.4,28.0,22.7,88,75,64,29.88,29.72,16,4,16,0.02
2014-12-19,32.8,28.8,23.6,23.9,20.0,16.3,80,70,60,30.17,29.88,14,3,14,0.00
2014-12-20,33.9,27.0,17.4,22.1,18.2,13.9,96,71,51,30.32,30.17,8,0,8,0.00
2014-12-21,34.7,31.0,27.9,30.6,26.6,19.8,92,84,74,30.38,30.30,0,0,0,0.03
2014-12-22,37.1,33.0,29.7,33.6,29.0,24.4,96,85,69,30.42,30.31,0,0,0,0.01
2014-12-23,35.9,34.3,32.8,35.8,33.4,30.5,100,96,92,30.33,30.21,0,0,0,0.45
2014-12-24,37.7,35.2,33.6,37.1,34.7,32.6,100,98,95,30.21,29.59,0,0,0,0.66
2014-12-25,46.2,38.7,34.0,42.4,29.7,19.0,100,73,47,29.96,29.45,20,3,20,0.20
2014-12-26,44.9,36.7,29.0,28.8,24.4,19.3,92,62,49,30.17,29.96,18,3,18,0.00
2014-12-27,47.1,35.2,28.7,35.0,29.2,21.9,96,81,51,30.22,29.98,13,1,13,0.00
2014-12-28,46.4,39.1,33.7,44.9,30.7,21.1,100,73,57,30.00,29.74,14,2,14,0.17
2014-12-29,38.3,30.3,22.6,26.1,15.8,5.1,84,56,35,30.24,30.00,16,2,16,0.00
2014-12-30,26.2,19.5,11.3,14.8,3.7,-7.7,91,53,27,30.36,30.24,12,1,12,0.00
2014-12-31,27.0,17.3,8.6,24.0,9.7,-1.0,91,75,34,30.31,30.06,13,1,13,0.00
2015-1-1,29.4,21.3,12.4,12.9,5.5,-0.7,83,52,34,30.06,29.85,17,2,17,0.00
2015-1-2,33.4,26.1,18.5,24.4,11.1,4.0,71,54,36,30.44,29.88,23,3,23,0.00